createdAt,value
2022-11-24T00:00:11.660Z,5.56
2022-11-24T00:01:11.621Z,5.61
2022-11-24T00:02:11.725Z,5.59
2022-11-24T00:03:11.797Z,5.59
2022-11-24T00:04:11.601Z,5.59
2022-11-24T00:05:11.582Z,5.54
2022-11-24T00:06:11.561Z,5.51
2022-11-24T00:07:11.619Z,5.53
2022-11-24T00:08:11.544Z,5.51
2022-11-24T00:09:14.542Z,5.51
2022-11-24T00:10:11.544Z,5.53
2022-11-24T00:11:11.512Z,5.53
2022-11-24T00:12:11.543Z,5.54
2022-11-24T00:13:11.490Z,5.56
2022-11-24T00:14:11.482Z,5.59
2022-11-24T00:15:11.483Z,5.61
2022-11-24T00:16:11.494Z,5.65
2022-11-24T00:17:11.475Z,5.65
2022-11-24T00:18:11.444Z,5.66
2022-11-24T00:19:14.559Z,5.68
2022-11-24T00:20:11.424Z,5.71
2022-11-24T00:21:11.411Z,5.69
2022-11-24T00:22:11.401Z,5.71
2022-11-24T00:23:11.416Z,5.72
2022-11-24T00:24:14.383Z,5.72
2022-11-24T00:25:11.377Z,5.73
2022-11-24T00:26:11.368Z,5.76
2022-11-24T00:27:11.354Z,5.79
2022-11-24T00:28:11.405Z,5.76
2022-11-24T00:29:11.324Z,5.79
2022-11-24T00:30:11.314Z,5.80
2022-11-24T00:31:16.776Z,5.79
2022-11-24T00:32:11.315Z,5.80
2022-11-24T00:33:11.286Z,5.80
2022-11-24T00:34:11.278Z,5.82
2022-11-24T00:35:11.265Z,5.80
2022-11-24T00:36:11.264Z,5.80
2022-11-24T00:37:11.309Z,5.80
2022-11-24T00:38:11.257Z,5.79
2022-11-24T00:39:14.226Z,5.80
2022-11-24T00:40:11.230Z,5.80
2022-11-24T00:41:11.208Z,5.80
2022-11-24T00:42:11.205Z,5.80
2022-11-24T00:43:11.201Z,5.79
2022-11-24T00:44:11.178Z,5.79
2022-11-24T00:45:14.152Z,5.80
2022-11-24T00:46:11.400Z,5.80
2022-11-24T00:47:11.246Z,5.83
2022-11-24T00:48:11.129Z,5.82
2022-11-24T00:49:11.131Z,5.82
2022-11-24T00:50:11.126Z,5.83
2022-11-24T00:51:11.132Z,5.82
2022-11-24T00:52:11.116Z,5.82
2022-11-24T00:53:11.163Z,5.82
2022-11-24T00:54:14.076Z,5.83
2022-11-24T00:55:11.084Z,5.83
2022-11-24T00:56:11.056Z,5.86
2022-11-24T00:57:11.070Z,5.84
2022-11-24T00:58:11.039Z,5.86
2022-11-24T00:59:11.020Z,5.87
2022-11-24T01:00:10.998Z,5.89
2022-11-24T01:01:11.035Z,6.02
2022-11-24T01:02:11.015Z,6.19
2022-11-24T01:03:10.982Z,6.33
2022-11-24T01:04:10.972Z,6.44
2022-11-24T01:05:11.000Z,6.57
2022-11-24T01:06:10.940Z,6.64
2022-11-24T01:07:10.969Z,6.72
2022-11-24T01:08:10.948Z,6.82
2022-11-24T01:09:13.915Z,6.93
2022-11-24T01:10:11.021Z,6.96
2022-11-24T01:11:10.903Z,6.99
2022-11-24T01:12:10.884Z,7.02
2022-11-24T01:13:10.882Z,7.03
2022-11-24T01:14:10.884Z,7.06
2022-11-24T01:15:10.857Z,7.06
2022-11-24T01:16:10.909Z,7.07
2022-11-24T01:17:10.835Z,7.11
2022-11-24T01:18:10.827Z,7.11
2022-11-24T01:19:10.839Z,7.14
2022-11-24T01:20:10.854Z,7.13
2022-11-24T01:21:10.843Z,7.13
2022-11-24T01:22:10.806Z,7.11
2022-11-24T01:23:10.786Z,7.18
2022-11-24T01:24:13.765Z,7.18
2022-11-24T01:25:10.766Z,7.20
2022-11-24T01:26:10.747Z,7.20
2022-11-24T01:27:10.738Z,7.17
2022-11-24T01:28:10.716Z,7.14
2022-11-24T01:29:10.717Z,7.11
2022-11-24T01:30:10.706Z,7.06
2022-11-24T01:31:10.753Z,7.07
2022-11-24T01:32:10.688Z,7.06
2022-11-24T01:33:10.788Z,7.10
2022-11-24T01:34:10.688Z,7.10
2022-11-24T01:35:10.649Z,7.07
2022-11-24T01:36:10.653Z,7.06
2022-11-24T01:37:10.627Z,7.03
2022-11-24T01:38:10.625Z,7.00
2022-11-24T01:39:13.629Z,7.00
2022-11-24T01:40:10.609Z,6.97
2022-11-24T01:41:10.590Z,6.95
2022-11-24T01:42:10.609Z,6.92
2022-11-24T01:43:10.571Z,6.87
2022-11-24T01:44:10.557Z,6.87
2022-11-24T01:45:10.576Z,6.85
2022-11-24T01:46:10.632Z,6.85
2022-11-24T01:47:10.530Z,6.84
2022-11-24T01:48:10.512Z,6.85
2022-11-24T01:49:10.530Z,6.85
2022-11-24T01:50:10.494Z,6.85
2022-11-24T01:51:10.494Z,6.84
2022-11-24T01:52:10.481Z,6.84
2022-11-24T01:53:10.468Z,6.84
2022-11-24T01:54:13.480Z,6.82
2022-11-24T01:55:10.511Z,6.81
2022-11-24T01:56:10.433Z,6.79
2022-11-24T01:57:10.421Z,6.79
2022-11-24T01:58:10.451Z,6.79
2022-11-24T01:59:10.399Z,6.78
2022-11-24T02:00:10.536Z,6.79
2022-11-24T02:01:10.406Z,6.78
2022-11-24T02:02:10.446Z,6.82
2022-11-24T02:03:10.374Z,6.89
2022-11-24T02:04:10.344Z,6.93
2022-11-24T02:05:10.363Z,6.92
2022-11-24T02:06:10.344Z,6.93
2022-11-24T02:07:10.410Z,6.87
2022-11-24T02:08:10.304Z,6.85
2022-11-24T02:09:13.303Z,6.84
2022-11-24T02:10:10.304Z,6.85
2022-11-24T02:11:10.306Z,6.87
2022-11-24T02:12:10.273Z,6.85
2022-11-24T02:13:10.272Z,6.82
2022-11-24T02:14:10.255Z,6.81
2022-11-24T02:15:10.251Z,6.78
2022-11-24T02:16:10.305Z,6.75
2022-11-24T02:17:10.221Z,6.70
2022-11-24T02:18:11.168Z,6.67
2022-11-24T02:19:10.203Z,6.64
2022-11-24T02:20:10.193Z,6.63
2022-11-24T02:21:10.187Z,6.62
2022-11-24T02:22:10.175Z,6.59
2022-11-24T02:23:10.161Z,6.56
2022-11-24T02:24:13.157Z,6.48
2022-11-24T02:25:10.158Z,6.44
2022-11-24T02:26:10.127Z,6.42
2022-11-24T02:27:10.140Z,6.39
2022-11-24T02:28:10.106Z,6.38
2022-11-24T02:29:10.097Z,6.33
2022-11-24T02:30:10.110Z,6.31
2022-11-24T02:31:10.127Z,6.27
2022-11-24T02:32:10.081Z,6.31
2022-11-24T02:33:10.053Z,6.33
2022-11-24T02:34:10.050Z,6.38
2022-11-24T02:35:10.047Z,6.46
2022-11-24T02:36:10.027Z,6.48
2022-11-24T02:37:10.018Z,6.49
2022-11-24T02:38:10.120Z,6.51
2022-11-24T02:39:13.010Z,6.56
2022-11-24T02:40:10.009Z,6.60
2022-11-24T02:41:09.968Z,6.59
2022-11-24T02:42:09.959Z,6.62
2022-11-24T02:43:09.951Z,6.64
2022-11-24T02:44:09.972Z,6.69
2022-11-24T02:45:09.931Z,6.67
2022-11-24T02:46:09.972Z,6.69
2022-11-24T02:47:09.912Z,6.72
2022-11-24T02:48:09.913Z,6.74
2022-11-24T02:49:09.942Z,6.78
2022-11-24T02:50:09.883Z,6.81
2022-11-24T02:51:09.874Z,6.85
2022-11-24T02:52:09.883Z,6.89
2022-11-24T02:53:09.853Z,6.99
2022-11-24T02:54:12.881Z,7.02
2022-11-24T02:55:09.853Z,7.05
2022-11-24T02:56:09.823Z,7.03
2022-11-24T02:57:09.820Z,7.03
2022-11-24T02:58:09.801Z,7.02
2022-11-24T02:59:09.810Z,7.02
2022-11-24T03:00:09.773Z,6.97
2022-11-24T03:01:09.833Z,6.95
2022-11-24T03:02:09.780Z,6.93
2022-11-24T03:03:09.825Z,6.96
2022-11-24T03:04:09.737Z,6.97
2022-11-24T03:05:09.732Z,7.00
2022-11-24T03:06:09.719Z,7.02
2022-11-24T03:07:09.807Z,7.03
2022-11-24T03:08:09.694Z,7.02
2022-11-24T03:09:12.689Z,7.00
2022-11-24T03:10:09.696Z,6.99
2022-11-24T03:11:09.675Z,7.00
2022-11-24T03:12:09.679Z,6.96
2022-11-24T03:13:09.656Z,6.89
2022-11-24T03:14:09.634Z,6.87
2022-11-24T03:15:09.618Z,6.84
2022-11-24T03:16:09.715Z,6.87
2022-11-24T03:17:09.627Z,6.84
2022-11-24T03:18:09.593Z,6.84
2022-11-24T03:19:09.608Z,6.84
2022-11-24T03:20:09.587Z,6.85
2022-11-24T03:21:09.582Z,6.81
2022-11-24T03:22:09.572Z,6.78
2022-11-24T03:23:09.568Z,6.77
2022-11-24T03:24:12.560Z,6.72
2022-11-24T03:25:09.544Z,6.69
2022-11-24T03:26:09.558Z,6.64
2022-11-24T03:27:09.501Z,6.63
2022-11-24T03:28:09.496Z,6.60
2022-11-24T03:29:09.489Z,6.54
2022-11-24T03:30:09.477Z,6.60
2022-11-24T03:31:09.533Z,6.62
2022-11-24T03:32:09.452Z,6.62
2022-11-24T03:33:09.461Z,6.62
2022-11-24T03:34:09.441Z,6.57
2022-11-24T03:35:09.432Z,6.51
2022-11-24T03:36:09.425Z,6.46
2022-11-24T03:37:09.403Z,6.42
2022-11-24T03:38:09.397Z,6.39
2022-11-24T03:39:12.381Z,6.33
2022-11-24T03:40:09.394Z,6.36
2022-11-24T03:41:09.371Z,6.36
2022-11-24T03:42:09.353Z,6.38
2022-11-24T03:43:09.372Z,6.35
2022-11-24T03:44:09.346Z,6.31
2022-11-24T03:45:38.156Z,6.30
2022-11-24T03:46:10.398Z,6.26
2022-11-24T03:47:09.307Z,6.28
2022-11-24T03:48:09.303Z,6.28
2022-11-24T03:49:09.286Z,6.26
2022-11-24T03:50:09.273Z,6.22
2022-11-24T03:51:09.263Z,6.19
2022-11-24T03:52:09.260Z,6.12
2022-11-24T03:53:10.458Z,6.04
2022-11-24T03:54:12.247Z,5.97
2022-11-24T03:55:09.246Z,5.86
2022-11-24T03:56:09.213Z,5.80
2022-11-24T03:57:09.195Z,5.76
2022-11-24T03:58:09.185Z,5.76
2022-11-24T03:59:09.189Z,5.73
2022-11-24T04:00:09.163Z,5.68
2022-11-24T04:01:09.267Z,5.69
2022-11-24T04:02:09.175Z,5.71
2022-11-24T04:03:09.180Z,5.69
2022-11-24T04:04:09.127Z,5.72
2022-11-24T04:05:09.131Z,5.71
2022-11-24T04:06:09.133Z,5.69
2022-11-24T04:07:09.154Z,5.64
2022-11-24T04:08:09.107Z,5.61
2022-11-24T04:09:12.078Z,5.54
2022-11-24T04:10:09.082Z,5.50
2022-11-24T04:11:09.058Z,5.47
2022-11-24T04:12:09.044Z,5.46
2022-11-24T04:13:09.061Z,5.41
2022-11-24T04:14:13.381Z,5.39
2022-11-24T04:15:09.048Z,5.43
2022-11-24T04:16:09.029Z,5.43
2022-11-24T04:17:08.991Z,5.44
2022-11-24T04:18:08.988Z,5.43
2022-11-24T04:19:08.985Z,5.39
2022-11-24T04:20:08.972Z,5.39
2022-11-24T04:21:08.972Z,5.35
2022-11-24T04:22:08.952Z,5.36
2022-11-24T04:23:08.950Z,5.36
2022-11-24T04:24:11.933Z,5.39
2022-11-24T04:25:08.954Z,5.39
2022-11-24T04:26:09.058Z,5.41
2022-11-24T04:27:08.901Z,5.44
2022-11-24T04:28:08.910Z,5.48
2022-11-24T04:29:08.887Z,5.56
2022-11-24T04:30:08.873Z,5.57
2022-11-24T04:31:08.891Z,5.56
2022-11-24T04:32:08.846Z,5.56
2022-11-24T04:33:08.853Z,5.62
2022-11-24T04:34:08.845Z,5.64
2022-11-24T04:35:08.831Z,5.64
2022-11-24T04:36:08.800Z,5.62
2022-11-24T04:37:08.799Z,5.62
2022-11-24T04:38:08.784Z,5.61
2022-11-24T04:39:23.809Z,5.57
2022-11-24T04:40:08.782Z,5.51
2022-11-24T04:41:08.752Z,5.46
2022-11-24T04:42:08.744Z,5.47
2022-11-24T04:43:08.736Z,5.44
2022-11-24T04:44:08.746Z,5.41
2022-11-24T04:45:08.712Z,5.38
2022-11-24T04:46:08.750Z,5.32
2022-11-24T04:47:08.686Z,5.28
2022-11-24T04:48:08.707Z,5.23
2022-11-24T04:49:08.665Z,5.20
2022-11-24T04:50:08.698Z,5.18
2022-11-24T04:51:08.659Z,5.18
2022-11-24T04:52:08.639Z,5.17
2022-11-24T04:53:08.627Z,5.14
2022-11-24T04:54:11.635Z,5.12
2022-11-24T04:55:08.658Z,5.15
2022-11-24T04:56:08.596Z,5.14
2022-11-24T04:57:08.599Z,5.14
2022-11-24T04:58:08.741Z,5.14
2022-11-24T04:59:08.844Z,5.12
2022-11-24T05:00:08.567Z,5.12
2022-11-24T05:01:08.562Z,5.12
2022-11-24T05:02:08.570Z,5.10
2022-11-24T05:03:08.537Z,5.11
2022-11-24T05:04:08.551Z,5.12
2022-11-24T05:05:08.502Z,5.15
2022-11-24T05:06:08.499Z,5.15
2022-11-24T05:07:11.298Z,5.17
2022-11-24T05:08:08.499Z,5.17
2022-11-24T05:09:11.469Z,5.17
2022-11-24T05:10:08.493Z,5.15
2022-11-24T05:11:08.454Z,5.14
2022-11-24T05:12:08.438Z,5.12
2022-11-24T05:13:08.434Z,5.10
2022-11-24T05:14:08.412Z,5.05
2022-11-24T05:15:08.461Z,5.04
2022-11-24T05:16:08.439Z,5.04
2022-11-24T05:17:08.400Z,5.00
2022-11-24T05:18:08.399Z,4.96
2022-11-24T05:19:08.362Z,4.96
2022-11-24T05:20:08.386Z,4.97
2022-11-24T05:21:08.342Z,4.96
2022-11-24T05:22:08.354Z,4.94
2022-11-24T05:23:08.351Z,4.93
2022-11-24T05:24:11.342Z,4.93
2022-11-24T05:25:08.314Z,4.92
2022-11-24T05:26:08.319Z,4.90
2022-11-24T05:27:08.284Z,4.92
2022-11-24T05:28:08.397Z,4.92
2022-11-24T05:29:08.293Z,4.89
2022-11-24T05:30:08.249Z,4.86
2022-11-24T05:31:08.305Z,4.87
2022-11-24T05:32:08.435Z,4.87
2022-11-24T05:33:08.213Z,4.86
2022-11-24T05:34:08.242Z,4.84
2022-11-24T05:35:08.224Z,4.78
2022-11-24T05:36:08.245Z,4.78
2022-11-24T05:37:08.204Z,4.74
2022-11-24T05:38:08.201Z,4.68
2022-11-24T05:39:11.163Z,4.63
2022-11-24T05:40:08.208Z,4.60
2022-11-24T05:41:08.173Z,4.59
2022-11-24T05:42:08.160Z,4.59
2022-11-24T05:43:08.165Z,4.59
2022-11-24T05:44:08.153Z,4.59
2022-11-24T05:45:08.096Z,4.58
2022-11-24T05:46:08.085Z,4.58
2022-11-24T05:47:08.150Z,4.56
2022-11-24T05:48:08.076Z,4.55
2022-11-24T05:49:08.082Z,4.55
2022-11-24T05:50:08.083Z,4.55
2022-11-24T05:51:09.499Z,4.56
2022-11-24T05:52:08.039Z,4.58
2022-11-24T05:53:08.035Z,4.63
2022-11-24T05:54:11.139Z,4.71
2022-11-24T05:55:08.258Z,4.74
2022-11-24T05:56:08.015Z,4.77
2022-11-24T05:57:07.977Z,4.78
2022-11-24T05:58:07.958Z,4.84
2022-11-24T05:59:10.010Z,4.87
2022-11-24T06:00:07.945Z,4.92
2022-11-24T06:01:07.940Z,4.93
2022-11-24T06:02:08.064Z,4.94
2022-11-24T06:03:08.073Z,4.97
2022-11-24T06:04:07.899Z,5.00
2022-11-24T06:05:07.897Z,5.04
2022-11-24T06:06:07.990Z,5.04
2022-11-24T06:07:07.952Z,5.07
2022-11-24T06:08:07.888Z,5.15
2022-11-24T06:09:10.868Z,5.26
2022-11-24T06:10:07.887Z,5.30
2022-11-24T06:11:07.858Z,5.33
2022-11-24T06:12:07.844Z,5.38
2022-11-24T06:13:07.875Z,5.38
2022-11-24T06:14:11.145Z,5.44
2022-11-24T06:15:07.737Z,5.46
2022-11-24T06:16:07.809Z,5.50
2022-11-24T06:17:07.754Z,5.56
2022-11-24T06:18:07.734Z,5.65
2022-11-24T06:19:07.700Z,5.68
2022-11-24T06:20:07.711Z,5.73
2022-11-24T06:21:11.986Z,5.94
2022-11-24T06:22:07.704Z,6.04
2022-11-24T06:23:07.834Z,6.11
2022-11-24T06:24:10.665Z,6.19
2022-11-24T06:25:07.662Z,6.27
2022-11-24T06:26:07.622Z,6.30
2022-11-24T06:27:07.691Z,6.30
2022-11-24T06:28:07.601Z,6.28
2022-11-24T06:29:07.623Z,6.33
2022-11-24T06:30:07.601Z,6.46
2022-11-24T06:31:07.608Z,6.59
2022-11-24T06:32:07.695Z,6.67
2022-11-24T06:33:07.585Z,6.72
2022-11-24T06:34:07.582Z,6.77
2022-11-24T06:35:07.560Z,6.78
2022-11-24T06:36:07.555Z,6.79
2022-11-24T06:37:07.537Z,6.79
2022-11-24T06:38:07.524Z,6.79
2022-11-24T06:39:10.489Z,6.79
2022-11-24T06:40:07.496Z,6.81
2022-11-24T06:41:07.507Z,6.77
2022-11-24T06:42:07.484Z,6.75
2022-11-24T06:43:07.475Z,6.79
2022-11-24T06:44:07.476Z,6.78
2022-11-24T06:45:09.391Z,6.79
2022-11-24T06:46:07.550Z,6.77
2022-11-24T06:47:07.407Z,6.72
2022-11-24T06:48:07.406Z,6.72
2022-11-24T06:49:07.386Z,6.77
2022-11-24T06:50:07.406Z,6.88
2022-11-24T06:51:07.399Z,6.96
2022-11-24T06:52:07.386Z,6.99
2022-11-24T06:53:07.385Z,7.05
2022-11-24T06:54:10.635Z,7.05
2022-11-24T06:55:07.398Z,7.02
2022-11-24T06:56:13.802Z,7.02
2022-11-24T06:57:07.307Z,7.03
2022-11-24T06:58:07.296Z,7.10
2022-11-24T06:59:07.308Z,7.14
2022-11-24T07:00:07.288Z,7.15
2022-11-24T07:01:07.285Z,7.25
2022-11-24T07:02:07.258Z,7.29
2022-11-24T07:03:07.323Z,7.28
2022-11-24T07:04:07.416Z,7.33
2022-11-24T07:05:07.248Z,7.43
2022-11-24T07:06:07.240Z,7.56
2022-11-24T07:08:07.198Z,7.66
2022-11-24T07:09:11.222Z,7.70
2022-11-24T07:10:07.227Z,7.76
2022-11-24T07:11:07.173Z,7.75
2022-11-24T07:12:07.182Z,7.82
2022-11-24T07:13:07.174Z,7.85
2022-11-24T07:14:07.190Z,7.88
2022-11-24T07:15:07.120Z,7.87
2022-11-24T07:16:07.174Z,7.88
2022-11-24T07:17:07.120Z,7.80
2022-11-24T07:18:07.100Z,7.80
2022-11-24T07:19:07.121Z,7.77
2022-11-24T07:20:07.069Z,7.73
2022-11-24T07:21:07.072Z,7.72
2022-11-24T07:22:07.050Z,7.70
2022-11-24T07:23:07.073Z,7.75
2022-11-24T07:24:10.071Z,7.70
2022-11-24T07:25:07.053Z,7.66
2022-11-24T07:26:07.316Z,7.67
2022-11-24T07:27:07.002Z,7.69
2022-11-24T07:28:06.998Z,7.70
2022-11-24T07:29:07.004Z,7.69
2022-11-24T07:30:06.963Z,7.69
2022-11-24T07:31:06.955Z,7.67
2022-11-24T07:32:07.017Z,7.70
2022-11-24T07:33:06.944Z,7.70
2022-11-24T07:34:06.944Z,7.69
2022-11-24T07:35:07.073Z,7.70
2022-11-24T07:36:06.936Z,7.69
2022-11-24T07:37:06.924Z,7.67
2022-11-24T07:38:06.915Z,7.67
2022-11-24T07:39:09.918Z,7.61
2022-11-24T07:40:06.893Z,7.60
2022-11-24T07:41:06.886Z,7.56
2022-11-24T07:42:06.855Z,7.57
2022-11-24T07:43:06.836Z,7.57
2022-11-24T07:44:07.839Z,7.56
2022-11-24T07:45:06.815Z,7.54
2022-11-24T07:46:06.939Z,7.53
2022-11-24T07:47:06.806Z,7.53
2022-11-24T07:48:06.816Z,7.53
2022-11-24T07:49:06.779Z,7.51
2022-11-24T07:50:06.770Z,7.45
2022-11-24T07:51:06.759Z,7.43
2022-11-24T07:52:06.787Z,7.42
2022-11-24T07:53:06.740Z,7.43
2022-11-24T07:54:09.733Z,7.43
2022-11-24T07:55:06.771Z,7.56
2022-11-24T07:56:06.727Z,7.79
2022-11-24T07:58:06.709Z,8.12
2022-11-24T07:59:06.708Z,8.16
2022-11-24T08:01:06.682Z,8.16
2022-11-24T08:02:06.715Z,8.18
2022-11-24T08:03:06.659Z,8.19
2022-11-24T08:04:06.696Z,8.19
2022-11-24T08:05:06.629Z,8.19
2022-11-24T08:07:07.672Z,8.20
2022-11-24T08:08:06.622Z,8.24
2022-11-24T08:09:09.622Z,8.24
2022-11-24T08:10:06.605Z,8.20
2022-11-24T08:11:06.579Z,8.18
2022-11-24T08:12:06.543Z,8.15
2022-11-24T08:13:06.543Z,8.13
2022-11-24T08:14:06.601Z,8.13
2022-11-24T08:15:10.994Z,8.12
2022-11-24T08:16:06.621Z,8.12
2022-11-24T08:17:06.585Z,8.08
2022-11-24T08:18:06.694Z,8.05
2022-11-24T08:19:06.472Z,8.03
2022-11-24T08:20:06.463Z,8.00
2022-11-24T08:21:06.443Z,7.97
2022-11-24T08:22:06.486Z,7.95
2022-11-24T08:23:06.455Z,7.90
2022-11-24T08:24:09.414Z,7.88
2022-11-24T08:25:06.423Z,7.85
2022-11-24T08:26:06.432Z,7.77
2022-11-24T08:27:06.426Z,7.73
2022-11-24T08:28:06.375Z,7.69
2022-11-24T08:29:06.389Z,7.63
2022-11-24T08:30:06.382Z,7.57
2022-11-24T08:31:06.386Z,7.54
2022-11-24T08:32:06.417Z,7.48
2022-11-24T08:33:06.327Z,7.45
2022-11-24T08:34:06.450Z,7.40
2022-11-24T08:35:14.053Z,7.39
2022-11-24T08:36:06.332Z,7.35
2022-11-24T08:37:06.287Z,7.35
2022-11-24T08:38:06.309Z,7.33
2022-11-24T08:39:09.330Z,7.32
2022-11-24T08:40:06.271Z,7.29
2022-11-24T08:41:06.441Z,7.25
2022-11-24T08:42:06.230Z,7.25
2022-11-24T08:43:06.257Z,7.24
2022-11-24T08:44:06.247Z,7.17
2022-11-24T08:45:19.935Z,7.18
2022-11-24T08:46:06.263Z,7.15
2022-11-24T08:47:06.188Z,7.14
2022-11-24T08:48:06.182Z,7.13
2022-11-24T08:49:06.192Z,7.11
2022-11-24T08:50:06.184Z,7.10
2022-11-24T08:51:06.151Z,7.06
2022-11-24T08:52:06.137Z,7.07
2022-11-24T08:53:06.151Z,7.05
2022-11-24T08:54:09.133Z,7.03
2022-11-24T08:55:06.113Z,7.03
2022-11-24T08:56:06.115Z,7.02
2022-11-24T08:57:06.080Z,7.02
2022-11-24T08:58:06.080Z,7.02
2022-11-24T08:59:06.131Z,7.03
2022-11-24T09:00:06.107Z,7.00
2022-11-24T09:01:06.105Z,7.03
2022-11-24T09:02:06.119Z,7.00
2022-11-24T09:03:06.027Z,7.02
2022-11-24T09:04:06.038Z,7.00
2022-11-24T09:05:22.472Z,7.00
2022-11-24T09:06:06.991Z,7.00
2022-11-24T09:07:06.014Z,7.00
2022-11-24T09:08:05.963Z,7.00
2022-11-24T09:09:08.986Z,7.00
2022-11-24T09:10:05.972Z,7.02
2022-11-24T09:11:06.129Z,6.99
2022-11-24T09:12:11.348Z,7.00
2022-11-24T09:13:05.953Z,6.99
2022-11-24T09:14:05.942Z,6.97
2022-11-24T09:15:05.924Z,6.99
2022-11-24T09:16:05.918Z,6.99
2022-11-24T09:17:05.974Z,6.99
2022-11-24T09:18:05.867Z,6.99
2022-11-24T09:19:05.890Z,6.96
2022-11-24T09:20:05.834Z,6.97
2022-11-24T09:21:05.850Z,6.99
2022-11-24T09:22:05.885Z,7.00
2022-11-24T09:23:05.808Z,7.05
2022-11-24T09:24:08.828Z,7.03
2022-11-24T09:25:05.839Z,7.06
2022-11-24T09:26:06.765Z,7.10
2022-11-24T09:27:05.779Z,7.13
2022-11-24T09:28:05.787Z,7.15
2022-11-24T09:29:05.804Z,7.17
2022-11-24T09:30:05.769Z,7.17
2022-11-24T09:31:05.821Z,7.17
2022-11-24T09:32:07.159Z,7.17
2022-11-24T09:33:05.729Z,7.15
2022-11-24T09:34:05.740Z,7.13
2022-11-24T09:35:05.689Z,7.14
2022-11-24T09:36:05.691Z,7.13
2022-11-24T09:37:05.669Z,7.14
2022-11-24T09:38:05.678Z,7.17
2022-11-24T09:39:08.686Z,7.20
2022-11-24T09:40:06.624Z,7.25
2022-11-24T09:41:05.618Z,7.25
2022-11-24T09:42:05.608Z,7.28
2022-11-24T09:43:05.632Z,7.29
2022-11-24T09:44:05.624Z,7.29
2022-11-24T09:45:05.639Z,7.28
2022-11-24T09:46:06.516Z,7.29
2022-11-24T09:47:05.650Z,7.28
2022-11-24T09:48:05.580Z,7.29
2022-11-24T09:49:05.560Z,7.33
2022-11-24T09:50:05.588Z,7.33
2022-11-24T09:51:05.552Z,7.36
2022-11-24T09:52:05.541Z,7.39
2022-11-24T09:53:05.533Z,7.43
2022-11-24T09:54:08.504Z,7.47
2022-11-24T09:55:05.551Z,7.48
2022-11-24T09:56:05.516Z,7.53
2022-11-24T09:57:05.463Z,7.61
2022-11-24T09:58:05.480Z,7.73
2022-11-24T09:59:05.515Z,7.91
2022-11-24T10:00:05.431Z,8.01
2022-11-24T10:01:05.502Z,8.09
2022-11-24T10:02:05.464Z,8.28
2022-11-24T10:03:05.436Z,8.42
2022-11-24T10:04:06.724Z,8.55
2022-11-24T10:05:05.432Z,8.58
2022-11-24T10:06:05.418Z,8.66
2022-11-24T10:07:05.366Z,8.63
2022-11-24T10:08:05.386Z,8.64
2022-11-24T10:09:08.375Z,8.76
2022-11-24T10:10:05.367Z,8.85
2022-11-24T10:11:05.356Z,8.95
2022-11-24T10:12:05.318Z,8.94
2022-11-24T10:13:05.318Z,8.85
2022-11-24T10:14:05.319Z,8.73
2022-11-24T10:15:05.497Z,8.70
2022-11-24T10:16:05.696Z,8.61
2022-11-24T10:17:07.623Z,8.58
2022-11-24T10:18:05.281Z,8.60
2022-11-24T10:19:06.249Z,8.60
2022-11-24T10:20:05.316Z,8.63
2022-11-24T10:21:05.300Z,8.64
2022-11-24T10:22:05.216Z,8.67
2022-11-24T10:23:05.225Z,8.69
2022-11-24T10:24:08.189Z,8.76
2022-11-24T10:25:05.199Z,9.00
2022-11-24T10:26:05.204Z,9.23
2022-11-24T10:27:05.206Z,9.34
2022-11-24T10:28:05.150Z,9.37
2022-11-24T10:29:05.131Z,9.41
2022-11-24T10:30:05.262Z,9.40
2022-11-24T10:31:05.184Z,9.31
2022-11-24T10:32:05.134Z,9.28
2022-11-24T10:33:05.094Z,9.29
2022-11-24T10:34:05.130Z,9.26
2022-11-24T10:35:05.100Z,9.26
2022-11-24T10:36:05.115Z,9.23
2022-11-24T10:37:05.084Z,9.26
2022-11-24T10:38:05.047Z,9.29
2022-11-24T10:39:08.173Z,9.34
2022-11-24T10:40:05.055Z,9.37
2022-11-24T10:41:06.046Z,9.40
2022-11-24T10:42:05.002Z,9.44
2022-11-24T10:43:04.993Z,9.40
2022-11-24T10:44:05.013Z,9.36
2022-11-24T10:45:06.545Z,9.34
2022-11-24T10:46:04.997Z,9.29
2022-11-24T10:47:04.975Z,9.28
2022-11-24T10:48:04.974Z,9.26
2022-11-24T10:49:06.155Z,9.23
2022-11-24T10:50:04.954Z,9.26
2022-11-24T10:51:04.935Z,9.31
2022-11-24T10:52:04.941Z,9.32
2022-11-24T10:53:04.896Z,9.29
2022-11-24T10:54:07.925Z,9.28
2022-11-24T10:55:04.885Z,9.26
2022-11-24T10:56:04.874Z,9.28
2022-11-24T10:57:04.876Z,9.25
2022-11-24T10:58:04.864Z,9.26
2022-11-24T10:59:04.864Z,9.29
2022-11-24T11:00:04.844Z,9.31
2022-11-24T11:01:04.863Z,9.34
2022-11-24T11:02:04.890Z,9.37
2022-11-24T11:03:04.867Z,9.40
2022-11-24T11:04:04.816Z,9.37
2022-11-24T11:05:04.801Z,9.26
2022-11-24T11:06:04.760Z,9.23
2022-11-24T11:07:04.864Z,9.23
2022-11-24T11:08:05.771Z,9.19
2022-11-24T11:09:07.754Z,9.14
2022-11-24T11:10:04.732Z,9.14
2022-11-24T11:11:04.731Z,9.13
2022-11-24T11:12:27.721Z,9.16
2022-11-24T11:13:05.721Z,9.16
2022-11-24T11:14:04.983Z,9.18
2022-11-24T11:15:04.670Z,9.18
2022-11-24T11:16:04.771Z,9.18
2022-11-24T11:17:04.648Z,9.19
2022-11-24T11:18:04.766Z,9.18
2022-11-24T11:19:20.299Z,9.22
2022-11-24T11:20:06.034Z,9.23
2022-11-24T11:21:04.605Z,9.29
2022-11-24T11:22:04.601Z,9.31
2022-11-24T11:23:04.623Z,9.34
2022-11-24T11:24:07.613Z,9.39
2022-11-24T11:25:04.715Z,9.41
2022-11-24T11:26:04.592Z,9.40
2022-11-24T11:27:04.571Z,9.39
2022-11-24T11:28:09.172Z,9.37
2022-11-24T11:31:22.433Z,9.31
2022-11-24T11:34:09.439Z,9.22
2022-11-24T11:35:05.473Z,9.21
2022-11-24T11:36:04.473Z,9.18
2022-11-24T11:37:04.527Z,9.14
2022-11-24T11:38:04.463Z,9.11
2022-11-24T11:39:07.446Z,9.08
2022-11-24T11:40:04.445Z,9.08
2022-11-24T11:41:04.707Z,9.03
2022-11-24T11:42:04.420Z,9.00
2022-11-24T11:43:04.404Z,8.97
2022-11-24T11:44:04.366Z,8.95
2022-11-24T11:45:04.389Z,8.94
2022-11-24T11:46:04.514Z,8.95
2022-11-24T11:47:04.412Z,8.94
2022-11-24T11:48:04.332Z,8.92
2022-11-24T11:49:04.349Z,8.92
2022-11-24T11:50:04.316Z,8.88
2022-11-24T11:51:22.681Z,8.88
2022-11-24T11:52:05.323Z,8.88
2022-11-24T11:53:04.308Z,8.88
2022-11-24T11:54:07.313Z,8.89
2022-11-24T11:55:04.299Z,8.85
2022-11-24T11:56:04.245Z,8.84
2022-11-24T11:57:04.536Z,8.81
2022-11-24T11:58:04.218Z,8.78
2022-11-24T11:59:04.231Z,8.74
2022-11-24T12:00:04.203Z,8.73
2022-11-24T12:01:04.240Z,8.69
2022-11-24T12:02:04.183Z,8.70
2022-11-24T12:03:04.262Z,8.73
2022-11-24T12:04:04.330Z,8.73
2022-11-24T12:05:04.190Z,8.74
2022-11-24T12:06:04.150Z,8.73
2022-11-24T12:07:04.264Z,8.73
2022-11-24T12:08:09.371Z,8.74
2022-11-24T12:09:23.463Z,8.71
2022-11-24T12:10:05.113Z,8.71
2022-11-24T12:11:04.097Z,8.82
2022-11-24T12:12:04.108Z,8.82
2022-11-24T12:13:04.102Z,8.99
2022-11-24T12:14:04.092Z,9.08
2022-11-24T12:15:10.274Z,9.14
2022-11-24T12:16:04.164Z,9.16
2022-11-24T12:17:04.038Z,9.18
2022-11-24T12:18:04.055Z,9.25
2022-11-24T12:19:05.006Z,9.26
2022-11-24T12:20:04.004Z,9.43
2022-11-24T12:21:04.023Z,9.47
2022-11-24T12:22:04.005Z,9.48
2022-11-24T12:23:03.969Z,9.48
2022-11-24T12:24:07.014Z,9.55
2022-11-24T12:25:03.966Z,9.58
2022-11-24T12:26:03.958Z,9.61
2022-11-24T12:27:03.959Z,9.68
2022-11-24T12:28:03.964Z,9.74
2022-11-24T12:29:03.934Z,9.95
2022-11-24T12:30:03.932Z,10.09
2022-11-24T12:31:03.978Z,10.26
2022-11-24T12:32:03.898Z,10.42
2022-11-24T12:33:03.869Z,10.54
2022-11-24T12:34:03.907Z,10.67
2022-11-24T12:35:03.878Z,10.76
2022-11-24T12:36:03.835Z,10.79
2022-11-24T12:37:03.860Z,10.78
2022-11-24T12:38:03.811Z,10.82
2022-11-24T12:39:06.923Z,10.90
2022-11-24T12:40:03.810Z,10.93
2022-11-24T12:41:39.253Z,11.05
2022-11-24T12:42:04.767Z,10.99
2022-11-24T12:43:03.818Z,10.92
2022-11-24T12:44:03.750Z,10.92
2022-11-24T12:45:03.740Z,10.74
2022-11-24T12:46:03.783Z,10.51
2022-11-24T12:47:03.797Z,10.40
2022-11-24T12:48:03.710Z,10.37
2022-11-24T12:49:03.755Z,10.30
2022-11-24T12:50:03.690Z,10.48
2022-11-24T12:51:03.701Z,10.71
2022-11-24T12:52:03.681Z,10.89
2022-11-24T12:53:03.671Z,11.07
2022-11-24T12:54:07.622Z,11.17
2022-11-24T12:55:03.710Z,11.29
2022-11-24T12:56:03.651Z,11.32
2022-11-24T12:57:03.613Z,11.37
2022-11-24T12:58:09.342Z,11.45
2022-11-24T12:59:03.668Z,11.57
2022-11-24T13:00:03.645Z,11.57
2022-11-24T13:01:03.600Z,11.54
2022-11-24T13:02:07.148Z,11.57
2022-11-24T13:03:03.833Z,11.57
2022-11-24T13:04:03.546Z,11.65
2022-11-24T13:05:04.505Z,11.66
2022-11-24T13:06:03.542Z,11.63
2022-11-24T13:07:03.572Z,11.62
2022-11-24T13:08:03.526Z,11.54
2022-11-24T13:09:06.502Z,11.43
2022-11-24T13:10:03.514Z,11.40
2022-11-24T13:11:04.616Z,11.45
2022-11-24T13:12:03.841Z,11.48
2022-11-24T13:13:03.459Z,11.51
2022-11-24T13:14:03.434Z,11.52
2022-11-24T13:15:03.434Z,11.47
2022-11-24T13:19:03.438Z,11.22
2022-11-24T13:20:03.402Z,11.00
2022-11-24T13:21:03.369Z,10.79
2022-11-24T13:22:03.355Z,10.90
2022-11-24T13:23:03.400Z,11.02
2022-11-24T13:24:06.352Z,11.23
2022-11-24T13:25:03.368Z,11.33
2022-11-24T13:26:03.318Z,11.40
2022-11-24T13:27:03.329Z,11.48